Terminal Aerodrome Forecast
Issued by NWS

Home | Current Version | Previous Version | Graphics & Text | Print | Product List | Glossary On
Versions: 1 2 3 4 5 6 7 8 9 10 11 12 13 14 15 16 17
000
FTUS43 KBIS 200534
TAFMOT
TAF
KMOT 200534Z 2006/2106 13005KT P6SM FEW250
     FM201700 17011KT P6SM FEW250
     FM210200 14009KT P6SM SCT250 WS020/19030KT
     FM210500 20012KT P6SM FEW250 WS020/22045KT=

USA.gov is the U.S. government's official web portal to all federal, state and local government web resources and services.